Claudiu Puscas

Olheiro-Chefe - Viitorul
17 Jul 2027
Sábado
Processo

Personalidade

Adaptabilidade (7) Ambição (11) Controvérsia (2) Lealdade (14) Pressão (18) Profissionalismo (17) Espírito Esportivo (7) Temperamento (3)

Perfil

Estilo de Treinamento Democrático
Licença Continental Pro
Determinação 3
Gestão de Pessoas 5
Motivação 7
Disciplina 5
Satisfação no Trabalho
62%
Fadiga
0%
Função Olheiro-Chefe
Salário 40.3K p/s
Contrato 14.03.2029

Desempenho

Comportamento Bom
Eficácia do Treinamento
26%
Desenvolvimento do Jogador
30%
Prevenção de Lesões
20%
Implementação Tática
50%

Eventos Recentes

Participou de uma reunião de recrutamento agora
Participou de uma reunião de recrutamento 7d atrás
Recomendou um alvo de transferência 7d atrás
Participou de uma reunião de recrutamento 14d atrás
Recomendou um alvo de transferência 14d atrás
Participou de uma reunião de recrutamento 14d atrás
Participou de uma reunião de recrutamento 21d atrás
Apresentou um dossiê à direção 21d atrás

Monitorando agora

218
Jogador Clube Status Habilidade Confiança Observado Última observação Último voto
Lorent Tolaj Plymouth Argyle Ativo 116 / 120 40% 5 21.06.2027 -
Aaron Collins Milton Keynes Dons Ativo 122 / 117 40% 6 21.06.2027 -
Camillo Tavernelli Arezzo Negociando 113 / 113 40% 1 21.06.2027 -
Kelly Saravanan Salford City Ativo 118 / 110 40% 2 14.06.2027 -
Rui Costa Port Vale Ativo 112 / 113 40% 4 14.06.2027 -
Daniel Udoh Salford City Ativo 105 / 103 40% 2 29.05.2027 -
Aaron Drinan Swindon Town Ativo 108 / 109 40% 3 29.05.2027 -
Camilo Durán Bloemfontein Celtic Ativo 112 / 124 40% 8 28.05.2027 -
Salah Mohsen El Masry Perdido 115 / 115 40% 10 28.05.2027 Observar
John Yeboah Venezia Ativo 121 / 114 40% 5 28.05.2027 -
Niall Ennis Blackpool Ativo 116 / 109 40% 2 27.05.2027 -
Giuseppe Di Serio Spezia Ativo 124 / 126 40% 1 27.05.2027 -
Mees Rijks Bristol Rovers Ativo 112 / 110 40% 4 26.05.2027 -
Lewis McCann Fleetwood Town Ativo 95 / 104 40% 2 26.05.2027 -
Thalys Almería Ativo 123 / 122 40% 1 26.05.2027 -
Sam Nombe Milton Keynes Dons Ativo 109 / 107 40% 5 25.05.2027 -
Jérémy Le Douaron Palermo Ativo 123 / 121 40% 2 25.05.2027 -
Malik Mothersille Stockport County Ativo 112 / 120 40% 2 24.05.2027 -
Ettore Gliozzi Mantova Ativo 121 / 111 40% 1 24.05.2027 -
Fashion Sakala MC Alger Ativo 119 / 137 40% 4 23.05.2027 -
Chico Banza Zamalek Ativo 105 / 107 40% 3 22.05.2027 -
Tammer Kumar West Bromwich Albion Ativo 122 / 117 40% 2 22.05.2027 -
Justin Obikwu Queens Park Rangers Ativo 96 / 107 40% 2 21.05.2027 -
Josh Koroma Leyton Orient Ativo 107 / 101 40% 2 21.05.2027 -
Christian Saydee Wigan Athletic Ativo 113 / 117 40% 1 21.05.2027 -
Silvio Merkaj Vicenza Ativo 116 / 116 40% 3 19.05.2027 -
Kyle Wootton Stockport County Ativo 121 / 122 40% 6 19.05.2027 -
Iwan Morgan Grimsby Town Ativo 115 / 114 40% 5 19.05.2027 -
Callum Lang Preston Ativo 112 / 121 40% 3 17.05.2027 -
Calum Kavanagh Oldham Athletic Ativo 102 / 105 40% 3 17.05.2027 -
Aidomo Emakhu Oxford United Ativo 116 / 120 40% 2 16.05.2027 -
David Okereke Cremonese Ativo 125 / 125 40% 3 14.05.2027 -
Shayne Lavery Cambridge United Ativo 105 / 103 40% 3 13.05.2027 -
Jalen Blesa Rio Ave Ativo 118 / 123 40% 2 12.05.2027 -
Fabrizio Cavegn Bristol Rovers Ativo 111 / 111 40% 2 11.05.2027 -
Yuki Ohashi Blackburn Rovers Ativo 123 / 112 40% 1 11.05.2027 -
Isaac Success El Masry Ativo 123 / 109 40% 1 10.05.2027 -
Jake Beesley Burton Albion Ativo 96 / 98 40% 3 08.05.2027 -
Emil Riis Leicester City Ativo 119 / 126 40% 1 08.05.2027 -
Florin Tănase Omonoia Ativo 130 / 136 40% 4 05.05.2027 -
Harvey Blair Portsmouth Ativo 122 / 120 40% 1 05.05.2027 -
Sam Bell Bristol City Ativo 119 / 122 40% 2 02.05.2027 -
Javi Zarzo Gubbio Ativo 105 / 93 40% 1 30.04.2027 -
Marcus Browne AFC Wimbledon Ativo 112 / 105 40% 2 28.04.2027 -
Matteo Rover Reggiana Ativo 119 / 120 40% 1 27.04.2027 -
Bradley Fink Wycombe Wanderers Ativo 111 / 103 40% 1 26.04.2027 -
Matty Stevens AFC Wimbledon Ativo 102 / 109 40% 3 22.04.2027 -
Ronan Hale Gillingham Ativo 116 / 112 40% 1 20.04.2027 -
German Onugkha Rodina Ativo 119 / 116 40% 4 19.04.2027 -
Elijah Adebayo Luton Town Ativo 128 / 130 40% 6 17.04.2027 -
Marezi Portsmouth Ativo 122 / 116 40% 3 15.04.2027 -
Giacomo Zecca Torres Ativo 112 / 112 40% 1 13.04.2027 -
Tyreece Campbell Charlton Athletic Ativo 116 / 127 40% 4 11.04.2027 -
Wandile Duba Maritzburg United Ativo 114 / 98 40% 3 09.04.2027 -
Dale Taylor Blackpool Ativo 116 / 110 40% 1 09.04.2027 -
David Miculescu FCSB Ativo 123 / 120 40% 10 04.04.2027 Observar
Kamran Aliev SKA Khabarovsk Ativo 98 / 102 40% 2 03.04.2027 -
Luther Tau SuperSport United Ativo 102 / 110 40% 8 01.04.2027 -
Josh Coburn Millwall Ativo 123 / 112 40% 2 31.03.2027 -
Lamine Cissé Peterborough United Ativo 117 / 130 40% 4 30.03.2027 -
Ali Youssef Apollon Ativo 119 / 119 40% 5 29.03.2027 -
Stephen Humphrys Bradford City Ativo 111 / 113 40% 3 29.03.2027 -
Sam Smith Wrexham Ativo 114 / 116 40% 1 28.03.2027 -
Dom Ballard Leyton Orient Ativo 115 / 131 40% 3 25.03.2027 -
Giorgi Kvernadze Frosinone Ativo 128 / 119 40% 1 20.03.2027 -
Oli McBurnie Hull City Ativo 137 / 135 40% 1 19.03.2027 -
Lamine Diakité Djoliba Ativo 97 / 95 40% 1 19.03.2027 -
Mihailo Ivanović Millwall Ativo 128 / 124 40% 2 18.03.2027 -
Samuel Tetteh Ashanti Gold Ativo 100 / 105 40% 1 17.03.2027 -
Victor Adeboyejo El Masry Ativo 98 / 99 40% 1 16.03.2027 -
Samuel Kalu Botev Plovdiv Ativo 117 / 109 40% 6 15.03.2027 -
Armstrong Oko-Flex Levski Ativo 114 / 124 40% 2 15.03.2027 -
Hamdi Labidi Olympique Akbou Ativo 99 / 93 40% 2 15.03.2027 -
Mathias Jørgensen Blackburn Rovers Ativo 128 / 116 40% 2 13.03.2027 -
Stephen Odey Ittihad Ativo 124 / 116 40% 2 12.03.2027 -
Jamie Reid Stevenage Ativo 102 / 112 40% 1 12.03.2027 -
Friday Ubong Hearts of Oak Ativo 113 / 90 40% 6 11.03.2027 -
Davis Keillor-Dunn Wrexham Ativo 112 / 116 40% 1 11.03.2027 -
Enzo López Cosenza Ativo 111 / 105 40% 1 05.03.2027 -
Victor Torp Coventry City Ativo 122 / 133 40% 1 04.03.2027 -
Brayan Gil Baltika Ativo 128 / 130 40% 1 26.02.2027 -
Ante Aralica Lokomotiv Sofia Ativo 105 / 99 40% 2 18.02.2027 -
Etiosa Ighodaro Kaizer Chiefs Ativo 106 / 99 40% 1 17.02.2027 -
François Kamano Sochi Ativo 116 / 112 40% 1 12.02.2027 -
Oleksii Hutsuliak Polissia Ativo 133 / 120 40% 4 10.02.2027 -
Leandro Godoy CSKA Sofia Ativo 117 / 111 40% 1 07.02.2027 -
Edarlyn Reyes Arsenal Tula Ativo 105 / 113 40% 1 06.02.2027 -
Patrick Schmidt Tarxien Rainbows Ativo 100 / 105 40% 1 05.02.2027 -
Marin Benko Zadar Ativo 129 / 126 40% 1 03.02.2027 -
Iqraam Rayners Mamelodi Sundowns Ativo 130 / 141 40% 4 02.02.2027 Observar
Ryan Hedges Derby County Ativo 121 / 112 40% 1 26.01.2027 -
Matei Goga Universitatea Craiova Ativo 75 / 89 72% 1 25.01.2027 Aprovar
Kristoffer Zachariassen Ferencvaros Ativo 121 / 128 40% 1 18.01.2027 -
Bojan Radulović Huddersfield Town Ativo 116 / 120 40% 3 01.01.2027 -
Maicon Levski Ativo 126 / 131 40% 2 28.12.2026 -
Ştefan Bană ND Gorica Ativo 91 / 97 40% 2 27.12.2026 -
Andreiaş Calcan Lucko Ativo 105 / 100 40% 2 26.12.2026 -
Zoran Mitrov Universitatea Craiova Ativo 112 / 108 40% 2 26.12.2026 -
Oussama Idrissi Ferencvaros Ativo 135 / 132 40% 6 25.12.2026 -
Heriberto Tavares Universitatea Craiova Ativo 107 / 111 40% 1 25.12.2026 -
Lebohang Maboe Kaizer Chiefs Ativo 116 / 125 40% 2 24.12.2026 -
Mduduzi Shabalala Kaizer Chiefs Ativo 108 / 107 40% 2 23.12.2026 -
Mamoudou Karamoko Dinamo Bucharest Ativo 117 / 117 40% 12 22.12.2026 -
Manu Nieto Andorra Ativo 112 / 116 40% 1 22.12.2026 -
Thulani Mabaso Chippa United Ativo 115 / 118 40% 1 22.12.2026 -
Nduduzo Sibiya Golden Arrows Ativo 109 / 122 40% 2 20.12.2026 -
Jonathan Okoronkwo Torpedo Moscow Ativo 102 / 106 40% 1 20.12.2026 -
Artem Slesar Zorya Ativo 118 / 107 40% 1 18.12.2026 -
Lebo Mothiba Mamelodi Sundowns Ativo 118 / 106 40% 1 17.12.2026 -
Velemseni Ndwandwe Golden Arrows Ativo 101 / 98 40% 1 17.12.2026 -
Julio Alonso Huesca Ativo 115 / 127 40% 1 17.12.2026 -
Cătălin Cîrjan Dinamo Bucharest Ativo 120 / 115 40% 3 16.12.2026 -
Otar Kiteishvili Sturm Graz Ativo 129 / 134 40% 1 16.12.2026 -
Borislav Tsonev CSKA 1948 Ativo 115 / 107 40% 1 13.12.2026 -
Jens Petter Hauge Bodo/Glimt Ativo 130 / 136 40% 3 12.12.2026 -
Alberto Soro Dinamo Bucharest Ativo 124 / 108 40% 5 11.12.2026 -
Alin Fică CFR Cluj Ativo 115 / 127 40% 2 10.12.2026 -
Ştefan Baiaram Universitatea Craiova Perdido 129 / 121 40% 5 09.12.2026 -
Denzel Jubitana Neftchi Ativo 115 / 118 40% 1 09.12.2026 -
Leo Goglichidze Rodina Ativo 114 / 116 40% 1 09.12.2026 -
Alexandru Cicâldău Universitatea Craiova Ativo 121 / 125 40% 2 08.12.2026 -
Ştefan Bodişteanu Botosani Ativo 112 / 111 40% 1 08.12.2026 -
Reda Khadra Qarabag Ativo 142 / 140 40% 1 07.12.2026 Mais informações
Meriton Korenica CFR Cluj Ativo 131 / 133 40% 4 06.12.2026 -
Ádin Molnár MTK Budapest Ativo 115 / 109 40% 2 05.12.2026 -
Itumeleng Mkhize Platinum Stars Ativo 122 / 116 40% 2 05.12.2026 -
Ammar Ramadan DAC Dunajska Streda Ativo 126 / 128 40% 3 04.12.2026 -
Andile Manyama Ajax Cape Town Ativo 118 / 93 40% 3 03.12.2026 -
Daniil Agureev Amkar Ativo 92 / 81 40% 1 03.12.2026 -
Seedy Jatta Sturm Graz Ativo 118 / 116 40% 2 02.12.2026 -
Marius Corbu Bekescsaba Ativo 95 / 99 40% 1 30.11.2026 -
Vegard Erlien Tromso Ativo 132 / 131 40% 2 29.11.2026 -
Martins Júnior Zira Ativo 110 / 113 40% 1 29.11.2026 -
Daniel Harvie Wycombe Wanderers Ativo 114 / 111 40% 1 29.11.2026 -
Oday Dabbagh Zamalek Ativo 97 / 96 40% 1 29.11.2026 -
Bernard Tekpetey Ludogorets Ativo 123 / 132 40% 2 26.11.2026 -
Natanaël Thio Petrolul Ativo 113 / 106 40% 1 26.11.2026 -
Achraf Bencharki Rapid Wien Ativo 127 / 117 40% 1 25.11.2026 -
Nuno Santos Mamelodi Sundowns Ativo 131 / 126 40% 2 24.11.2026 -
Bahlul Mammadov Inter Ativo 107 / 104 40% 3 23.11.2026 -
Cristian Mihai Dinamo Bucharest Ativo 107 / 103 40% 1 23.11.2026 -
Carlos Paraco Metalist Ativo 109 / 109 40% 1 23.11.2026 -
Tshepang Moremi Orlando Pirates Ativo 125 / 105 40% 1 18.11.2026 -
Aldair Ferreira Astra Ativo 107 / 106 40% 1 18.11.2026 -
Carlos Mora Universitatea Craiova Ativo 126 / 123 40% 1 16.11.2026 -
Sebastian Mailat Botosani Ativo 117 / 119 40% 1 14.11.2026 -
Paul Nita Astra Ativo 103 / 98 40% 1 14.11.2026 -
Tomás Chancalay Minnesota United FC Ativo 115 / 113 40% 1 14.11.2026 -
Milán Tóth Vasas Ativo 112 / 115 40% 1 13.11.2026 -
Assad Al Hamlawi FCSB Ativo 121 / 111 40% 1 10.11.2026 -
Jesper Cornelius IK Start Ativo 97 / 109 40% 1 10.11.2026 -
Matej Trusa DAC Dunajska Streda Ativo 109 / 107 40% 1 10.11.2026 -
Chinedu Geoffrey Krylya Sovetov Ativo 117 / 116 40% 1 10.11.2026 -
Liel Abada Charlotte Football Club Ativo 125 / 140 40% 2 09.11.2026 -
Krisztofer Horváth Ujpest Ativo 113 / 113 40% 1 09.11.2026 -
Johannes Eggestein Austria Wien Ativo 133 / 131 40% 1 07.11.2026 -
Ola Brynhildsen Bodo/Glimt Ativo 135 / 136 40% 1 07.11.2026 -
Jerome Karelse Golden Arrows Ativo 92 / 93 40% 1 07.11.2026 -
Zizo Al Ahly Ativo 125 / 132 40% 1 04.11.2026 -
Andrei Cordea CFR Cluj Ativo 120 / 118 40% 1 04.11.2026 -
Aljoša Matko Ujpest Ativo 113 / 119 40% 1 04.11.2026 -
Isaac Matondo Koper Ativo 109 / 105 40% 3 01.11.2026 -
Yegor Golenkov Rostov Ativo 119 / 122 40% 1 30.10.2026 Mais informações
Eren Aydın Zira Ativo 118 / 121 40% 1 30.10.2026 -
Vladimir Nikolov Slavia Sofia Ativo 112 / 110 40% 2 29.10.2026 -
Chuchu Ramírez Nacional Ativo 137 / 130 40% 2 26.10.2026 -
Marko Brest Olimpija Ljubljana Ativo 109 / 108 40% 1 25.10.2026 -
Breel Embolo Atlanta United FC Ativo 148 / 137 40% 1 24.10.2026 -
Claudy M'Buyi Rapid Wien Ativo 111 / 117 40% 1 24.10.2026 -
Iuri Medeiros Ujpest Ativo 118 / 115 40% 1 23.10.2026 -
Dorin Dragusin Pandurii Ativo 117 / 122 40% 1 23.10.2026 -
Yeangel Montero Naxxar Lions Ativo 102 / 97 40% 1 20.10.2026 -
Musa Qurbanlı Qarabag Ativo 120 / 113 40% 1 20.10.2026 -
Vladislav Sarveli Nizhniy Novgorod Ativo 107 / 110 40% 1 16.10.2026 -
Matthias Verreth Dinamo Bucharest Ativo 125 / 113 40% 2 15.10.2026 -
Andrei Dumiter Botosani Ativo 102 / 92 40% 1 15.10.2026 -
Marlon Mustapha Altach Ativo 108 / 115 40% 1 13.10.2026 -
Stephen Afrifa Sporting Kansas City Ativo 94 / 103 40% 1 12.10.2026 -
Philipp Alaba Austria Wien Ativo 127 / 124 40% 1 12.10.2026 -
Sveinn Aron Guðjohnsen Vikingur Ativo 112 / 121 40% 3 11.10.2026 -
Simon Elisor Universitatea Craiova Ativo 126 / 114 40% 2 10.10.2026 -
Pedro Marques Apollon Ativo 121 / 109 40% 1 10.10.2026 -
Renaldo Cephas Qarabag Ativo 110 / 120 40% 2 09.10.2026 -
Vyacheslav Grulev Nizhniy Novgorod Ativo 113 / 118 40% 1 09.10.2026 -
Noah Botic Austria Wien Ativo 115 / 114 40% 1 08.10.2026 -
Radek Šiler Podbrezova Ativo 111 / 111 40% 1 06.10.2026 -
Dominik Kocsis Debrecen Ativo 104 / 113 40% 1 06.10.2026 -
Dávid Ďuriš Rosenborg Ativo 111 / 117 40% 1 05.10.2026 -
Marcelo Torres Gimnasia La Plata Ativo 115 / 110 40% 2 04.10.2026 -
Oscar Osorio Atletico Venezuela Ativo 112 / 128 40% 1 04.10.2026 -
Alexandr Rudenko Lokomotiv Moscow Ativo 117 / 112 40% 1 03.10.2026 -
Alexei Dominguez Pachuca Ativo 104 / 112 40% 1 03.10.2026 -
Veljko Birmančević Ferencvaros Ativo 136 / 124 40% 2 01.10.2026 -
Enzo Larrosa Independiente Medellin Ativo 106 / 97 40% 1 01.10.2026 -
Federico Girotti Alianza Lima Ativo 126 / 128 40% 1 29.09.2026 -
Paul Ngongo Aalesund Ativo 111 / 88 40% 1 28.09.2026 -
Elias Hoff Melkersen Stromsgodset Ativo 104 / 117 40% 1 27.09.2026 -
Alexandru Pop Dinamo Bucharest Ativo 96 / 107 40% 2 26.09.2026 -
Gamid Agalarov Dinamo Makhachkala Ativo 111 / 107 40% 1 25.09.2026 -
Fabricio Oviedo Rosario Central Ativo 116 / 110 40% 1 24.09.2026 -
Andreas Helmersen Bodo/Glimt Ativo 119 / 134 40% 1 24.09.2026 -
Benjamin Tetteh NK Maribor Ativo 110 / 113 40% 1 21.09.2026 -
Timur Suleimanov Rostov Ativo 113 / 110 40% 1 20.09.2026 -
Emil Breivik Molde Ativo 135 / 143 40% 1 20.09.2026 -
Antonio Galeano Remo Stars Ativo 128 / 115 40% 1 20.09.2026 -
Hervin Ongenda Botosani Ativo 113 / 114 40% 1 19.09.2026 -
Ramiro Ruiz Rodríguez Atlético Tucumán Ativo 133 / 135 40% 2 17.09.2026 -
Asanele Velebayi Kaizer Chiefs Ativo 111 / 94 40% 1 14.09.2026 -
George Puşcaş Dinamo Bucharest Ativo 129 / 125 40% 2 13.09.2026 -
Nouhou Seattle Sounders Ativo 121 / 107 40% 1 10.09.2026 -
Relebohile Mofokeng Orlando Pirates Ativo 108 / 129 40% 1 10.09.2026 -
Yanela Mbuthuma Orlando Pirates Ativo 96 / 120 40% 1 09.09.2026 -
David Kalokoh Ajax Ativo 114 / 127 40% 1 09.09.2026 -
Marcos Camarda Santiago Wanderers Ativo 115 / 116 40% 1 31.08.2026 -
Mamadou Thiam FCSB Ativo 115 / 115 40% 1 24.08.2026 -
Hugo Cuypers Monterrey Ativo 126 / 129 40% 1 01.08.2026 -
Lisandro Cabrera Maipú Ativo 125 / 119 40% 1 01.08.2026 -
Joe Gelhardt Hull City Ativo 125 / 121 40% 1 01.08.2026 -